sensor_id;sensor_type;location;lat;lon;timestamp;pressure;altitude;pressure_sealevel;temperature
66372;BMP180;53168;51.146;17.120;2022-09-17T00:04:52;99106.20;;;14.16
66372;BMP180;53168;51.146;17.120;2022-09-17T00:07:22;99105.40;;;14.10
66372;BMP180;53168;51.146;17.120;2022-09-17T00:09:52;99099.40;;;13.80
66372;BMP180;53168;51.146;17.120;2022-09-17T00:12:22;99096.40;;;13.50
66372;BMP180;53168;51.146;17.120;2022-09-17T00:14:51;99091.60;;;13.30
66372;BMP180;53168;51.146;17.120;2022-09-17T00:17:26;99094.40;;;13.10
66372;BMP180;53168;51.146;17.120;2022-09-17T00:19:56;99093.40;;;12.90
66372;BMP180;53168;51.146;17.120;2022-09-17T00:22:25;99093.60;;;12.80
66372;BMP180;53168;51.146;17.120;2022-09-17T00:24:55;99097.00;;;12.70
66372;BMP180;53168;51.146;17.120;2022-09-17T00:27:25;99092.80;;;12.60
66372;BMP180;53168;51.146;17.120;2022-09-17T00:29:55;99092.80;;;12.50
66372;BMP180;53168;51.146;17.120;2022-09-17T00:32:25;99093.60;;;12.50
66372;BMP180;53168;51.146;17.120;2022-09-17T00:34:55;99097.40;;;12.40
66372;BMP180;53168;51.146;17.120;2022-09-17T00:37:24;99091.80;;;12.40
66372;BMP180;53168;51.146;17.120;2022-09-17T00:39:53;99093.00;;;12.30
66372;BMP180;53168;51.146;17.120;2022-09-17T00:42:23;99092.20;;;12.20
66372;BMP180;53168;51.146;17.120;2022-09-17T00:44:55;99083.20;;;12.10
66372;BMP180;53168;51.146;17.120;2022-09-17T00:47:31;99084.20;;;12.00
66372;BMP180;53168;51.146;17.120;2022-09-17T00:50:06;99086.80;;;11.90
66372;BMP180;53168;51.146;17.120;2022-09-17T00:52:46;99088.00;;;12.00
66372;BMP180;53168;51.146;17.120;2022-09-17T00:55:25;99090.60;;;12.00
66372;BMP180;53168;51.146;17.120;2022-09-17T00:58:00;99088.60;;;12.00
66372;BMP180;53168;51.146;17.120;2022-09-17T01:00:31;99085.40;;;12.00
66372;BMP180;53168;51.146;17.120;2022-09-17T01:03:01;99082.60;;;11.90
66372;BMP180;53168;51.146;17.120;2022-09-17T01:05:43;99084.60;;;11.90
66372;BMP180;53168;51.146;17.120;2022-09-17T01:08:21;99083.40;;;11.90
66372;BMP180;53168;51.146;17.120;2022-09-17T01:11:26;99088.60;;;11.80
66372;BMP180;53168;51.146;17.120;2022-09-17T01:14:21;99085.00;;;11.80
66372;BMP180;53168;51.146;17.120;2022-09-17T01:17:06;99083.60;;;11.80
66372;BMP180;53168;51.146;17.120;2022-09-17T01:20:25;99080.40;;;11.88
66372;BMP180;53168;51.146;17.120;2022-09-17T01:23:26;99076.40;;;11.90
66372;BMP180;53168;51.146;17.120;2022-09-17T01:26:20;99075.00;;;11.90
66372;BMP180;53168;51.146;17.120;2022-09-17T01:29:04;99073.40;;;11.90
66372;BMP180;53168;51.146;17.120;2022-09-17T01:31:44;99071.80;;;11.90
66372;BMP180;53168;51.146;17.120;2022-09-17T01:34:25;99064.60;;;11.90
66372;BMP180;53168;51.146;17.120;2022-09-17T01:37:03;99065.20;;;11.94
66372;BMP180;53168;51.146;17.120;2022-09-17T01:39:50;99061.00;;;12.00
66372;BMP180;53168;51.146;17.120;2022-09-17T01:42:28;99060.60;;;12.00
66372;BMP180;53168;51.146;17.120;2022-09-17T01:45:04;99070.00;;;12.00
66372;BMP180;53168;51.146;17.120;2022-09-17T01:47:43;99069.20;;;12.00
66372;BMP180;53168;51.146;17.120;2022-09-17T01:50:23;99071.60;;;12.00
66372;BMP180;53168;51.146;17.120;2022-09-17T01:52:55;99071.60;;;12.00
66372;BMP180;53168;51.146;17.120;2022-09-17T01:55:34;99078.80;;;11.98
66372;BMP180;53168;51.146;17.120;2022-09-17T01:58:09;99069.60;;;11.90
66372;BMP180;53168;51.146;17.120;2022-09-17T02:00:46;99063.80;;;11.90
66372;BMP180;53168;51.146;17.120;2022-09-17T02:03:20;99066.20;;;11.90
66372;BMP180;53168;51.146;17.120;2022-09-17T02:05:57;99065.00;;;11.90
66372;BMP180;53168;51.146;17.120;2022-09-17T02:08:32;99059.00;;;11.90
66372;BMP180;53168;51.146;17.120;2022-09-17T02:11:08;99063.60;;;11.90
66372;BMP180;53168;51.146;17.120;2022-09-17T02:13:43;99064.20;;;11.90
66372;BMP180;53168;51.146;17.120;2022-09-17T02:16:22;99064.80;;;11.80
66372;BMP180;53168;51.146;17.120;2022-09-17T02:19:00;99067.00;;;11.74
66372;BMP180;53168;51.146;17.120;2022-09-17T02:21:39;99067.60;;;11.70
66372;BMP180;53168;51.146;17.120;2022-09-17T02:24:16;99070.40;;;11.70
66372;BMP180;53168;51.146;17.120;2022-09-17T02:26:56;99071.00;;;11.70
66372;BMP180;53168;51.146;17.120;2022-09-17T02:29:33;99068.80;;;11.60
66372;BMP180;53168;51.146;17.120;2022-09-17T02:32:04;99066.20;;;11.50
66372;BMP180;53168;51.146;17.120;2022-09-17T02:34:34;99066.60;;;11.40
66372;BMP180;53168;51.146;17.120;2022-09-17T02:37:05;99064.00;;;11.30
66372;BMP180;53168;51.146;17.120;2022-09-17T02:39:35;99068.00;;;11.20
66372;BMP180;53168;51.146;17.120;2022-09-17T02:42:18;99066.00;;;11.20
66372;BMP180;53168;51.146;17.120;2022-09-17T02:45:02;99062.40;;;11.20
66372;BMP180;53168;51.146;17.120;2022-09-17T02:48:06;99066.20;;;11.20
66372;BMP180;53168;51.146;17.120;2022-09-17T02:51:01;99057.60;;;11.20
66372;BMP180;53168;51.146;17.120;2022-09-17T02:53:40;99054.40;;;11.20
66372;BMP180;53168;51.146;17.120;2022-09-17T02:56:26;99045.20;;;11.20
66372;BMP180;53168;51.146;17.120;2022-09-17T02:59:07;99039.60;;;11.28
66372;BMP180;53168;51.146;17.120;2022-09-17T03:01:43;99043.60;;;11.30
66372;BMP180;53168;51.146;17.120;2022-09-17T03:04:16;99041.00;;;11.40
66372;BMP180;53168;51.146;17.120;2022-09-17T03:06:48;99033.00;;;11.40
66372;BMP180;53168;51.146;17.120;2022-09-17T03:09:20;99039.00;;;11.40
66372;BMP180;53168;51.146;17.120;2022-09-17T03:11:49;99041.80;;;11.50
66372;BMP180;53168;51.146;17.120;2022-09-17T03:14:18;99040.60;;;11.60
66372;BMP180;53168;51.146;17.120;2022-09-17T03:16:48;99038.60;;;11.70
66372;BMP180;53168;51.146;17.120;2022-09-17T03:19:17;99039.80;;;11.80
66372;BMP180;53168;51.146;17.120;2022-09-17T03:21:47;99042.40;;;12.00
66372;BMP180;53168;51.146;17.120;2022-09-17T03:24:16;99042.80;;;12.20
66372;BMP180;53168;51.146;17.120;2022-09-17T03:26:45;99044.80;;;12.40
66372;BMP180;53168;51.146;17.120;2022-09-17T03:29:17;99042.80;;;12.50
66372;BMP180;53168;51.146;17.120;2022-09-17T03:31:46;99050.60;;;12.50
66372;BMP180;53168;51.146;17.120;2022-09-17T03:34:15;99043.20;;;12.50
66372;BMP180;53168;51.146;17.120;2022-09-17T03:36:44;99055.20;;;12.50
66372;BMP180;53168;51.146;17.120;2022-09-17T03:39:14;99057.20;;;12.40
66372;BMP180;53168;51.146;17.120;2022-09-17T03:41:43;99052.80;;;12.40
66372;BMP180;53168;51.146;17.120;2022-09-17T03:44:12;99056.80;;;12.40
66372;BMP180;53168;51.146;17.120;2022-09-17T03:46:44;99057.60;;;12.40
66372;BMP180;53168;51.146;17.120;2022-09-17T03:49:14;99050.40;;;12.40
66372;BMP180;53168;51.146;17.120;2022-09-17T03:51:43;99051.00;;;12.30
66372;BMP180;53168;51.146;17.120;2022-09-17T03:54:13;99054.20;;;12.30
66372;BMP180;53168;51.146;17.120;2022-09-17T03:56:42;99050.80;;;12.30
66372;BMP180;53168;51.146;17.120;2022-09-17T03:59:11;99045.80;;;12.30
66372;BMP180;53168;51.146;17.120;2022-09-17T04:01:40;99052.40;;;12.30
66372;BMP180;53168;51.146;17.120;2022-09-17T04:04:10;99045.60;;;12.38
66372;BMP180;53168;51.146;17.120;2022-09-17T04:06:39;99045.40;;;12.30
66372;BMP180;53168;51.146;17.120;2022-09-17T04:09:08;99044.20;;;12.40
66372;BMP180;53168;51.146;17.120;2022-09-17T04:11:37;99048.40;;;12.40
66372;BMP180;53168;51.146;17.120;2022-09-17T04:14:06;99042.60;;;12.46
66372;BMP180;53168;51.146;17.120;2022-09-17T04:16:35;99042.20;;;12.50
66372;BMP180;53168;51.146;17.120;2022-09-17T04:19:05;99043.60;;;12.50
66372;BMP180;53168;51.146;17.120;2022-09-17T04:21:34;99042.80;;;12.40
66372;BMP180;53168;51.146;17.120;2022-09-17T04:24:03;99041.80;;;12.40
66372;BMP180;53168;51.146;17.120;2022-09-17T04:26:33;99042.00;;;12.30
66372;BMP180;53168;51.146;17.120;2022-09-17T04:29:02;99044.60;;;12.30
66372;BMP180;53168;51.146;17.120;2022-09-17T04:31:31;99043.60;;;12.30
66372;BMP180;53168;51.146;17.120;2022-09-17T04:34:01;99044.20;;;12.32
66372;BMP180;53168;51.146;17.120;2022-09-17T04:36:30;99052.40;;;12.30
66372;BMP180;53168;51.146;17.120;2022-09-17T04:38:59;99049.80;;;12.30
66372;BMP180;53168;51.146;17.120;2022-09-17T04:41:29;99045.20;;;12.30
66372;BMP180;53168;51.146;17.120;2022-09-17T04:43:58;99054.00;;;12.30
66372;BMP180;53168;51.146;17.120;2022-09-17T04:46:27;99056.60;;;12.40
66372;BMP180;53168;51.146;17.120;2022-09-17T04:48:56;99058.00;;;12.40
66372;BMP180;53168;51.146;17.120;2022-09-17T04:51:25;99058.80;;;12.40
66372;BMP180;53168;51.146;17.120;2022-09-17T04:53:54;99066.60;;;12.30
66372;BMP180;53168;51.146;17.120;2022-09-17T04:56:24;99061.40;;;12.30
66372;BMP180;53168;51.146;17.120;2022-09-17T04:58:53;99065.40;;;12.30
66372;BMP180;53168;51.146;17.120;2022-09-17T05:01:22;99061.80;;;12.30
66372;BMP180;53168;51.146;17.120;2022-09-17T05:03:51;99066.40;;;12.30
66372;BMP180;53168;51.146;17.120;2022-09-17T05:06:20;99065.80;;;12.30
66372;BMP180;53168;51.146;17.120;2022-09-17T05:08:49;99062.80;;;12.30
66372;BMP180;53168;51.146;17.120;2022-09-17T05:11:18;99067.00;;;12.30
66372;BMP180;53168;51.146;17.120;2022-09-17T05:13:47;99063.60;;;12.40
66372;BMP180;53168;51.146;17.120;2022-09-17T05:16:17;99066.20;;;12.40
66372;BMP180;53168;51.146;17.120;2022-09-17T05:18:46;99068.00;;;12.50
66372;BMP180;53168;51.146;17.120;2022-09-17T05:21:17;99061.40;;;12.50
66372;BMP180;53168;51.146;17.120;2022-09-17T05:23:46;99059.20;;;12.50
66372;BMP180;53168;51.146;17.120;2022-09-17T05:26:15;99059.20;;;12.52
66372;BMP180;53168;51.146;17.120;2022-09-17T05:28:45;99055.60;;;12.60
66372;BMP180;53168;51.146;17.120;2022-09-17T05:31:14;99058.40;;;12.70
66372;BMP180;53168;51.146;17.120;2022-09-17T05:33:44;99058.60;;;12.72
66372;BMP180;53168;51.146;17.120;2022-09-17T05:36:17;99058.00;;;12.80
66372;BMP180;53168;51.146;17.120;2022-09-17T05:38:47;99053.00;;;13.00
66372;BMP180;53168;51.146;17.120;2022-09-17T05:41:16;99056.80;;;13.10
66372;BMP180;53168;51.146;17.120;2022-09-17T05:43:46;99055.00;;;13.30
66372;BMP180;53168;51.146;17.120;2022-09-17T05:46:19;99057.60;;;13.40
66372;BMP180;53168;51.146;17.120;2022-09-17T05:48:56;99058.20;;;13.50
66372;BMP180;53168;51.146;17.120;2022-09-17T05:52:01;99061.80;;;13.62
66372;BMP180;53168;51.146;17.120;2022-09-17T05:54:32;99058.80;;;13.76
66372;BMP180;53168;51.146;17.120;2022-09-17T05:57:04;99059.60;;;13.80
66372;BMP180;53168;51.146;17.120;2022-09-17T05:59:34;99053.80;;;13.80
66372;BMP180;53168;51.146;17.120;2022-09-17T06:02:04;99063.80;;;13.90
66372;BMP180;53168;51.146;17.120;2022-09-17T06:04:34;99060.60;;;13.90
66372;BMP180;53168;51.146;17.120;2022-09-17T06:07:05;99062.40;;;13.92
66372;BMP180;53168;51.146;17.120;2022-09-17T06:09:37;99066.40;;;14.00
66372;BMP180;53168;51.146;17.120;2022-09-17T06:12:09;99056.20;;;14.00
66372;BMP180;53168;51.146;17.120;2022-09-17T06:14:47;99057.80;;;14.00
66372;BMP180;53168;51.146;17.120;2022-09-17T06:17:17;99054.40;;;14.00
66372;BMP180;53168;51.146;17.120;2022-09-17T06:19:50;99063.40;;;14.10
66372;BMP180;53168;51.146;17.120;2022-09-17T06:22:20;99064.80;;;14.10
66372;BMP180;53168;51.146;17.120;2022-09-17T06:24:51;99068.60;;;14.10
66372;BMP180;53168;51.146;17.120;2022-09-17T06:27:30;99064.60;;;14.00
66372;BMP180;53168;51.146;17.120;2022-09-17T06:30:13;99069.00;;;14.06
66372;BMP180;53168;51.146;17.120;2022-09-17T06:32:44;99066.40;;;14.10
66372;BMP180;53168;51.146;17.120;2022-09-17T06:35:18;99074.80;;;14.20
66372;BMP180;53168;51.146;17.120;2022-09-17T06:37:50;99077.00;;;14.14
66372;BMP180;53168;51.146;17.120;2022-09-17T06:40:19;99084.20;;;14.20
66372;BMP180;53168;51.146;17.120;2022-09-17T06:42:56;99088.40;;;14.14
66372;BMP180;53168;51.146;17.120;2022-09-17T06:45:57;99088.80;;;14.10
66372;BMP180;53168;51.146;17.120;2022-09-17T06:48:29;99097.60;;;14.20
66372;BMP180;53168;51.146;17.120;2022-09-17T06:51:05;99100.80;;;14.20
66372;BMP180;53168;51.146;17.120;2022-09-17T06:53:36;99096.20;;;14.30
66372;BMP180;53168;51.146;17.120;2022-09-17T06:56:08;99103.60;;;14.30
66372;BMP180;53168;51.146;17.120;2022-09-17T06:58:40;99108.40;;;14.30
66372;BMP180;53168;51.146;17.120;2022-09-17T07:01:11;99101.60;;;14.30
66372;BMP180;53168;51.146;17.120;2022-09-17T07:03:43;99103.20;;;14.30
66372;BMP180;53168;51.146;17.120;2022-09-17T07:06:13;99106.60;;;14.30
66372;BMP180;53168;51.146;17.120;2022-09-17T07:08:42;99105.00;;;14.38
66372;BMP180;53168;51.146;17.120;2022-09-17T07:11:12;99104.00;;;14.50
66372;BMP180;53168;51.146;17.120;2022-09-17T07:13:41;99108.20;;;14.60
66372;BMP180;53168;51.146;17.120;2022-09-17T07:16:12;99106.60;;;14.60
66372;BMP180;53168;51.146;17.120;2022-09-17T07:18:42;99115.60;;;14.60
66372;BMP180;53168;51.146;17.120;2022-09-17T07:21:11;99115.60;;;14.60
66372;BMP180;53168;51.146;17.120;2022-09-17T07:23:41;99114.40;;;14.70
66372;BMP180;53168;51.146;17.120;2022-09-17T07:26:14;99107.00;;;14.70
66372;BMP180;53168;51.146;17.120;2022-09-17T07:28:44;99105.20;;;14.70
66372;BMP180;53168;51.146;17.120;2022-09-17T07:31:14;99106.60;;;14.70
66372;BMP180;53168;51.146;17.120;2022-09-17T07:33:45;99112.20;;;14.70
66372;BMP180;53168;51.146;17.120;2022-09-17T07:36:15;99114.20;;;14.80
66372;BMP180;53168;51.146;17.120;2022-09-17T07:38:45;99114.20;;;15.00
66372;BMP180;53168;51.146;17.120;2022-09-17T07:41:16;99118.00;;;15.10
66372;BMP180;53168;51.146;17.120;2022-09-17T07:43:47;99130.80;;;15.26
66372;BMP180;53168;51.146;17.120;2022-09-17T07:46:21;99132.00;;;15.30
66372;BMP180;53168;51.146;17.120;2022-09-17T07:48:51;99141.40;;;15.20
66372;BMP180;53168;51.146;17.120;2022-09-17T07:51:23;99145.20;;;15.14
66372;BMP180;53168;51.146;17.120;2022-09-17T07:53:54;99165.80;;;15.10
66372;BMP180;53168;51.146;17.120;2022-09-17T07:56:25;99155.00;;;15.10
66372;BMP180;53168;51.146;17.120;2022-09-17T07:59:09;99154.80;;;15.02
66372;BMP180;53168;51.146;17.120;2022-09-17T08:01:40;99156.40;;;15.10
66372;BMP180;53168;51.146;17.120;2022-09-17T08:04:10;99157.00;;;15.10
66372;BMP180;53168;51.146;17.120;2022-09-17T08:06:39;99152.40;;;15.10
66372;BMP180;53168;51.146;17.120;2022-09-17T08:09:24;99145.40;;;15.20
66372;BMP180;53168;51.146;17.120;2022-09-17T08:12:06;99153.20;;;15.40
66372;BMP180;53168;51.146;17.120;2022-09-17T08:14:36;99145.20;;;15.48
66372;BMP180;53168;51.146;17.120;2022-09-17T08:17:08;99150.40;;;15.50
66372;BMP180;53168;51.146;17.120;2022-09-17T08:19:37;99149.00;;;15.50
66372;BMP180;53168;51.146;17.120;2022-09-17T08:22:06;99153.00;;;15.50
66372;BMP180;53168;51.146;17.120;2022-09-17T08:24:35;99151.20;;;15.58
66372;BMP180;53168;51.146;17.120;2022-09-17T08:27:05;99149.40;;;15.60
66372;BMP180;53168;51.146;17.120;2022-09-17T08:29:34;99141.40;;;15.70
66372;BMP180;53168;51.146;17.120;2022-09-17T08:32:04;99142.40;;;15.70
66372;BMP180;53168;51.146;17.120;2022-09-17T08:34:33;99138.80;;;15.72
66372;BMP180;53168;51.146;17.120;2022-09-17T08:37:04;99135.80;;;15.80
66372;BMP180;53168;51.146;17.120;2022-09-17T08:39:38;99142.60;;;15.90
66372;BMP180;53168;51.146;17.120;2022-09-17T08:42:15;99147.20;;;16.00
66372;BMP180;53168;51.146;17.120;2022-09-17T08:44:48;99147.60;;;16.00
66372;BMP180;53168;51.146;17.120;2022-09-17T08:47:26;99145.20;;;16.10
66372;BMP180;53168;51.146;17.120;2022-09-17T08:49:59;99134.80;;;16.24
66372;BMP180;53168;51.146;17.120;2022-09-17T08:52:54;99135.80;;;16.30
66372;BMP180;53168;51.146;17.120;2022-09-17T08:55:39;99126.20;;;16.40
66372;BMP180;53168;51.146;17.120;2022-09-17T08:58:36;99122.60;;;16.60
66372;BMP180;53168;51.146;17.120;2022-09-17T09:01:26;99126.20;;;16.60
66372;BMP180;53168;51.146;17.120;2022-09-17T09:04:17;99127.80;;;16.64
66372;BMP180;53168;51.146;17.120;2022-09-17T09:06:51;99125.60;;;16.70
66372;BMP180;53168;51.146;17.120;2022-09-17T09:09:28;99127.60;;;16.70
66372;BMP180;53168;51.146;17.120;2022-09-17T09:12:08;99131.40;;;16.80
66372;BMP180;53168;51.146;17.120;2022-09-17T09:14:48;99139.00;;;16.70
66372;BMP180;53168;51.146;17.120;2022-09-17T09:17:21;99135.00;;;16.54
66372;BMP180;53168;51.146;17.120;2022-09-17T09:20:59;99142.00;;;16.40
66372;BMP180;53168;51.146;17.120;2022-09-17T09:28:04;99151.80;;;16.60
66372;BMP180;53168;51.146;17.120;2022-09-17T09:31:01;99164.20;;;16.70
66372;BMP180;53168;51.146;17.120;2022-09-17T09:33:42;99171.80;;;16.78
66372;BMP180;53168;51.146;17.120;2022-09-17T09:36:17;99187.60;;;16.82
66372;BMP180;53168;51.146;17.120;2022-09-17T09:39:00;99189.80;;;16.80
66372;BMP180;53168;51.146;17.120;2022-09-17T09:41:39;99206.40;;;16.70
66372;BMP180;53168;51.146;17.120;2022-09-17T09:44:15;99206.80;;;16.50
66372;BMP180;53168;51.146;17.120;2022-09-17T09:47:09;99213.60;;;16.28
66372;BMP180;53168;51.146;17.120;2022-09-17T09:50:06;99210.60;;;16.10
66372;BMP180;53168;51.146;17.120;2022-09-17T09:52:59;99206.00;;;16.20
66372;BMP180;53168;51.146;17.120;2022-09-17T09:56:02;99194.80;;;16.28
66372;BMP180;53168;51.146;17.120;2022-09-17T09:58:59;99202.20;;;16.40
66372;BMP180;53168;51.146;17.120;2022-09-17T10:01:38;99201.80;;;16.40
66372;BMP180;53168;51.146;17.120;2022-09-17T10:04:20;99201.40;;;16.30
66372;BMP180;53168;51.146;17.120;2022-09-17T10:06:53;99208.00;;;16.28
66372;BMP180;53168;51.146;17.120;2022-09-17T10:09:22;99215.40;;;16.30
66372;BMP180;53168;51.146;17.120;2022-09-17T10:12:05;99212.00;;;16.32
66372;BMP180;53168;51.146;17.120;2022-09-17T10:14:45;99191.60;;;16.50
66372;BMP180;53168;51.146;17.120;2022-09-17T10:17:20;99201.00;;;16.70
66372;BMP180;53168;51.146;17.120;2022-09-17T10:20:15;99204.00;;;16.90
66372;BMP180;53168;51.146;17.120;2022-09-17T10:22:51;99218.20;;;16.90
66372;BMP180;53168;51.146;17.120;2022-09-17T10:25:32;99213.60;;;16.88
66372;BMP180;53168;51.146;17.120;2022-09-17T10:28:11;99213.40;;;16.80
66372;BMP180;53168;51.146;17.120;2022-09-17T10:30:58;99203.80;;;16.86
66372;BMP180;53168;51.146;17.120;2022-09-17T10:33:30;99191.60;;;17.06
66372;BMP180;53168;51.146;17.120;2022-09-17T10:36:03;99201.40;;;17.10
66372;BMP180;53168;51.146;17.120;2022-09-17T10:38:38;99208.40;;;17.10
66372;BMP180;53168;51.146;17.120;2022-09-17T10:41:22;99203.40;;;17.10
66372;BMP180;53168;51.146;17.120;2022-09-17T10:43:52;99201.80;;;17.00
66372;BMP180;53168;51.146;17.120;2022-09-17T10:46:26;99208.40;;;17.00
66372;BMP180;53168;51.146;17.120;2022-09-17T10:49:10;99203.20;;;16.96
66372;BMP180;53168;51.146;17.120;2022-09-17T10:51:45;99203.40;;;16.90
66372;BMP180;53168;51.146;17.120;2022-09-17T10:54:42;99216.60;;;16.70
66372;BMP180;53168;51.146;17.120;2022-09-17T10:57:25;99214.60;;;16.50
66372;BMP180;53168;51.146;17.120;2022-09-17T11:00:11;99211.60;;;16.40
66372;BMP180;53168;51.146;17.120;2022-09-17T11:07:12;99202.60;;;16.66
66372;BMP180;53168;51.146;17.120;2022-09-17T11:10:06;99187.40;;;17.14
66372;BMP180;53168;51.146;17.120;2022-09-17T11:13:31;99186.00;;;17.76
66372;BMP180;53168;51.146;17.120;2022-09-17T11:16:43;99182.60;;;18.50
66372;BMP180;53168;51.146;17.120;2022-09-17T11:19:31;99183.60;;;18.98
66372;BMP180;53168;51.146;17.120;2022-09-17T11:22:16;99171.40;;;19.24
66372;BMP180;53168;51.146;17.120;2022-09-17T11:25:24;99171.00;;;19.38
66372;BMP180;53168;51.146;17.120;2022-09-17T11:28:17;99174.60;;;19.30
66372;BMP180;53168;51.146;17.120;2022-09-17T11:31:03;99175.20;;;19.20
66372;BMP180;53168;51.146;17.120;2022-09-17T11:33:52;99177.00;;;19.00
66372;BMP180;53168;51.146;17.120;2022-09-17T11:39:42;99168.80;;;18.50
66372;BMP180;53168;51.146;17.120;2022-09-17T11:42:20;99170.40;;;18.30
66372;BMP180;53168;51.146;17.120;2022-09-17T11:44:55;99164.20;;;18.20
66372;BMP180;53168;51.146;17.120;2022-09-17T11:47:35;99161.40;;;18.10
66372;BMP180;53168;51.146;17.120;2022-09-17T11:50:15;99151.00;;;18.74
66372;BMP180;53168;51.146;17.120;2022-09-17T11:53:02;99155.80;;;19.50
66372;BMP180;53168;51.146;17.120;2022-09-17T11:55:41;99142.00;;;19.70
66372;BMP180;53168;51.146;17.120;2022-09-17T11:58:20;99104.80;;;21.44
66372;BMP180;53168;51.146;17.120;2022-09-17T12:01:00;98984.60;;;22.04
66372;BMP180;53168;51.146;17.120;2022-09-17T12:03:47;99133.00;;;23.92
66372;BMP180;53168;51.146;17.120;2022-09-17T12:06:29;99124.20;;;22.90
66372;BMP180;53168;51.146;17.120;2022-09-17T12:09:11;99057.00;;;24.20
66372;BMP180;53168;51.146;17.120;2022-09-17T12:11:46;99114.40;;;25.54
66372;BMP180;53168;51.146;17.120;2022-09-17T12:14:38;99128.80;;;25.80
66372;BMP180;53168;51.146;17.120;2022-09-17T12:17:20;99132.20;;;24.60
66372;BMP180;53168;51.146;17.120;2022-09-17T12:19:57;99127.20;;;23.74
66372;BMP180;53168;51.146;17.120;2022-09-17T12:22:33;99132.00;;;22.96
66372;BMP180;53168;51.146;17.120;2022-09-17T12:25:13;99128.20;;;22.40
66372;BMP180;53168;51.146;17.120;2022-09-17T12:27:56;99126.60;;;22.28
66372;BMP180;53168;51.146;17.120;2022-09-17T12:30:47;99126.60;;;21.84
66372;BMP180;53168;51.146;17.120;2022-09-17T12:33:30;99117.20;;;21.64
66372;BMP180;53168;51.146;17.120;2022-09-17T12:36:39;99126.80;;;21.50
66372;BMP180;53168;51.146;17.120;2022-09-17T12:40:05;99134.40;;;21.06
66372;BMP180;53168;51.146;17.120;2022-09-17T12:42:53;99126.40;;;20.80
66372;BMP180;53168;51.146;17.120;2022-09-17T12:48:55;99119.80;;;21.10
66372;BMP180;53168;51.146;17.120;2022-09-17T12:51:49;99106.60;;;21.10
66372;BMP180;53168;51.146;17.120;2022-09-17T12:54:41;99112.20;;;21.50
66372;BMP180;53168;51.146;17.120;2022-09-17T12:57:27;99107.40;;;21.98
66372;BMP180;53168;51.146;17.120;2022-09-17T13:00:07;99074.80;;;24.18
66372;BMP180;53168;51.146;17.120;2022-09-17T13:02:43;99049.60;;;26.54
66372;BMP180;53168;51.146;17.120;2022-09-17T13:06:11;99084.40;;;28.38
66372;BMP180;53168;51.146;17.120;2022-09-17T13:09:21;99037.00;;;28.96
66372;BMP180;53168;51.146;17.120;2022-09-17T13:12:15;99073.40;;;29.98
66372;BMP180;53168;51.146;17.120;2022-09-17T13:18:24;99081.80;;;26.44
66372;BMP180;53168;51.146;17.120;2022-09-17T13:21:05;99081.20;;;25.36
66372;BMP180;53168;51.146;17.120;2022-09-17T13:23:45;99046.20;;;24.90
66372;BMP180;53168;51.146;17.120;2022-09-17T13:26:43;99065.40;;;25.30
66372;BMP180;53168;51.146;17.120;2022-09-17T13:32:52;99077.40;;;24.44
66372;BMP180;53168;51.146;17.120;2022-09-17T13:35:50;99086.00;;;24.10
66372;BMP180;53168;51.146;17.120;2022-09-17T13:38:20;99085.00;;;23.50
66372;BMP180;53168;51.146;17.120;2022-09-17T13:41:19;99082.20;;;23.90
66372;BMP180;53168;51.146;17.120;2022-09-17T13:43:49;99085.80;;;23.24
66372;BMP180;53168;51.146;17.120;2022-09-17T13:46:27;99090.00;;;22.52
66372;BMP180;53168;51.146;17.120;2022-09-17T13:49:03;99094.60;;;21.82
66372;BMP180;53168;51.146;17.120;2022-09-17T13:51:51;99093.40;;;21.14
66372;BMP180;53168;51.146;17.120;2022-09-17T13:54:34;99096.20;;;20.50
66372;BMP180;53168;51.146;17.120;2022-09-17T13:57:11;99094.20;;;20.06
66372;BMP180;53168;51.146;17.120;2022-09-17T13:59:58;99093.20;;;19.64
66372;BMP180;53168;51.146;17.120;2022-09-17T14:02:36;99099.80;;;19.30
66372;BMP180;53168;51.146;17.120;2022-09-17T14:05:36;99098.40;;;19.00
66372;BMP180;53168;51.146;17.120;2022-09-17T14:08:28;99096.00;;;18.70
66372;BMP180;53168;51.146;17.120;2022-09-17T14:11:21;99097.80;;;18.42
66372;BMP180;53168;51.146;17.120;2022-09-17T14:14:44;99102.00;;;18.36
66372;BMP180;53168;51.146;17.120;2022-09-17T14:17:50;99101.40;;;18.50
66372;BMP180;53168;51.146;17.120;2022-09-17T14:20:24;99094.00;;;18.40
66372;BMP180;53168;51.146;17.120;2022-09-17T14:22:59;99095.00;;;18.30
66372;BMP180;53168;51.146;17.120;2022-09-17T14:25:43;99084.80;;;18.10
66372;BMP180;53168;51.146;17.120;2022-09-17T14:28:25;99084.80;;;18.00
66372;BMP180;53168;51.146;17.120;2022-09-17T14:30:57;99083.00;;;17.90
66372;BMP180;53168;51.146;17.120;2022-09-17T14:33:30;99077.40;;;17.90
66372;BMP180;53168;51.146;17.120;2022-09-17T14:36:09;99074.80;;;18.00
66372;BMP180;53168;51.146;17.120;2022-09-17T14:38:47;99077.00;;;18.10
66372;BMP180;53168;51.146;17.120;2022-09-17T14:41:23;99084.60;;;18.00
66372;BMP180;53168;51.146;17.120;2022-09-17T14:44:00;99082.80;;;17.90
66372;BMP180;53168;51.146;17.120;2022-09-17T14:46:34;99086.00;;;17.80
66372;BMP180;53168;51.146;17.120;2022-09-17T14:52:31;99091.20;;;17.50
66372;BMP180;53168;51.146;17.120;2022-09-17T14:55:21;99084.20;;;17.70
66372;BMP180;53168;51.146;17.120;2022-09-17T14:58:01;99050.00;;;19.40
66372;BMP180;53168;51.146;17.120;2022-09-17T15:00:35;99062.40;;;22.16
66372;BMP180;53168;51.146;17.120;2022-09-17T15:03:18;99062.80;;;24.02
66372;BMP180;53168;51.146;17.120;2022-09-17T15:05:49;99062.00;;;25.36
66372;BMP180;53168;51.146;17.120;2022-09-17T15:08:22;99071.60;;;25.30
66372;BMP180;53168;51.146;17.120;2022-09-17T15:10:57;99078.80;;;25.08
66372;BMP180;53168;51.146;17.120;2022-09-17T15:13:31;99081.20;;;24.22
66372;BMP180;53168;51.146;17.120;2022-09-17T15:16:13;99069.40;;;24.44
66372;BMP180;53168;51.146;17.120;2022-09-17T15:18:51;99086.20;;;26.16
66372;BMP180;53168;51.146;17.120;2022-09-17T15:21:32;99091.60;;;25.64
66372;BMP180;53168;51.146;17.120;2022-09-17T15:24:23;99097.20;;;24.74
66372;BMP180;53168;51.146;17.120;2022-09-17T15:27:01;99091.20;;;23.96